createdAt,value
2023-07-18T00:01:17.254Z,101335.72
2023-07-18T00:03:45.349Z,101348.41
2023-07-18T00:06:13.098Z,101345.72
2023-07-18T00:08:42.442Z,101343.84
2023-07-18T00:11:10.185Z,101351.72
2023-07-18T00:13:37.954Z,101349.03
2023-07-18T00:16:06.086Z,101350.09
2023-07-18T00:18:34.207Z,101350.78
2023-07-18T00:21:02.946Z,101348.09
2023-07-18T00:23:31.569Z,101342.00
2023-07-18T00:26:00.672Z,101340.47
2023-07-18T00:28:29.570Z,101343.03
2023-07-18T00:30:57.446Z,101345.72
2023-07-18T00:33:25.182Z,101348.41
2023-07-18T00:35:53.389Z,101348.31
2023-07-18T00:38:21.621Z,101352.78
2023-07-18T00:40:50.184Z,101323.19
2023-07-18T00:43:20.856Z,101345.88
2023-07-18T00:45:50.382Z,101351.19
2023-07-18T00:48:18.558Z,101348.72
2023-07-18T00:50:46.283Z,101353.25
2023-07-18T00:53:14.298Z,101348.19
2023-07-18T00:55:42.710Z,101345.88
2023-07-18T00:58:10.863Z,101349.25
2023-07-18T01:00:42.611Z,101345.16
2023-07-18T01:03:10.362Z,101353.81
2023-07-18T01:05:40.200Z,101343.06
2023-07-18T01:08:07.991Z,101349.00
2023-07-18T01:10:36.005Z,101348.13
2023-07-18T01:13:03.854Z,101338.06
2023-07-18T01:15:35.845Z,101341.38
2023-07-18T01:18:08.329Z,101348.44
2023-07-18T01:20:37.272Z,101344.22
2023-07-18T01:23:06.936Z,101345.06
2023-07-18T01:25:35.694Z,101339.00
2023-07-18T01:28:04.259Z,101334.75
2023-07-18T01:30:32.486Z,101332.38
2023-07-18T01:33:00.678Z,101329.16
2023-07-18T01:35:29.660Z,101332.38
2023-07-18T01:37:58.528Z,101336.91
2023-07-18T01:40:28.026Z,101325.81
2023-07-18T01:42:56.733Z,101333.13
2023-07-18T01:45:25.573Z,101324.78
2023-07-18T01:47:53.766Z,101321.56
2023-07-18T01:50:22.140Z,101331.53
2023-07-18T01:52:50.051Z,101327.69
2023-07-18T01:55:18.133Z,101322.94
2023-07-18T01:57:48.481Z,101322.59
2023-07-18T02:00:21.917Z,101329.03
2023-07-18T02:02:52.453Z,101309.00
2023-07-18T02:05:22.734Z,101324.38
2023-07-18T02:07:50.644Z,101321.69
2023-07-18T02:10:20.761Z,101321.63
2023-07-18T02:12:50.631Z,101302.84
2023-07-18T02:15:18.534Z,101309.25
2023-07-18T02:17:46.811Z,101305.22
2023-07-18T02:20:15.578Z,101320.56
2023-07-18T02:22:45.928Z,101322.25
2023-07-18T02:25:16.278Z,101316.16
2023-07-18T02:27:44.137Z,101312.59
2023-07-18T02:30:14.209Z,101307.41
2023-07-18T02:32:43.374Z,101307.34
2023-07-18T02:35:12.616Z,101310.81
2023-07-18T02:37:40.482Z,101302.91
2023-07-18T02:40:11.000Z,101290.63
2023-07-18T02:42:40.326Z,101298.31
2023-07-18T02:45:10.929Z,101292.31
2023-07-18T02:47:41.495Z,101288.63
2023-07-18T02:50:12.082Z,101285.25
2023-07-18T02:52:40.398Z,101283.31
2023-07-18T02:55:09.324Z,101287.56
2023-07-18T02:57:37.616Z,101275.19
2023-07-18T03:00:18.872Z,101275.91
2023-07-18T03:02:49.461Z,101284.53
2023-07-18T03:05:18.126Z,101287.19
2023-07-18T03:07:47.546Z,101280.28
2023-07-18T03:10:15.775Z,101281.28
2023-07-18T03:12:43.571Z,101291.88
2023-07-18T03:15:12.137Z,101285.78
2023-07-18T03:17:39.935Z,101287.63
2023-07-18T03:20:17.793Z,101288.50
2023-07-18T03:22:46.234Z,101286.84
2023-07-18T03:25:14.445Z,101291.25
2023-07-18T03:27:42.317Z,101268.72
2023-07-18T03:30:11.886Z,101276.84
2023-07-18T03:32:41.044Z,101280.22
2023-07-18T03:35:12.070Z,101279.19
2023-07-18T03:37:39.990Z,101281.75
2023-07-18T03:40:13.732Z,101257.84
2023-07-18T03:42:43.412Z,101278.13
2023-07-18T03:45:14.239Z,101282.34
2023-07-18T03:47:45.442Z,101284.81
2023-07-18T03:50:17.848Z,101276.81
2023-07-18T03:52:46.141Z,101277.59
2023-07-18T03:55:14.029Z,101280.06
2023-07-18T03:57:45.714Z,101279.91
2023-07-18T04:00:19.239Z,101278.66
2023-07-18T04:02:50.548Z,101283.75
2023-07-18T04:05:20.453Z,101267.69
2023-07-18T04:07:49.078Z,101280.16
2023-07-18T04:10:18.829Z,101286.22
2023-07-18T04:12:46.791Z,101275.06
2023-07-18T04:15:15.881Z,101260.47
2023-07-18T04:17:46.502Z,101254.94
2023-07-18T04:20:15.117Z,101270.88
2023-07-18T04:22:44.283Z,101259.38
2023-07-18T04:25:12.364Z,101259.94
2023-07-18T04:27:40.138Z,101256.16
2023-07-18T04:30:09.495Z,101263.47
2023-07-18T04:32:37.263Z,101266.59
2023-07-18T04:35:07.271Z,101247.44
2023-07-18T04:37:35.175Z,101271.69
2023-07-18T04:40:07.003Z,101266.88
2023-07-18T04:42:37.156Z,101260.41
2023-07-18T04:45:07.208Z,101265.38
2023-07-18T04:47:35.128Z,101270.59
2023-07-18T04:50:02.942Z,101274.09
2023-07-18T04:52:30.687Z,101277.47
2023-07-18T04:54:58.380Z,101268.59
2023-07-18T04:57:30.387Z,101266.66
2023-07-18T04:59:58.098Z,101260.50
2023-07-18T05:02:25.886Z,101256.78
2023-07-18T05:04:53.646Z,101253.25
2023-07-18T05:07:21.335Z,101259.06
2023-07-18T05:09:49.059Z,101245.28
2023-07-18T05:12:16.819Z,101257.88
2023-07-18T05:14:45.956Z,101256.28
2023-07-18T05:17:13.657Z,101247.69
2023-07-18T05:19:41.423Z,101253.41
2023-07-18T05:22:09.182Z,101257.69
2023-07-18T05:24:37.390Z,101254.91
2023-07-18T05:27:05.351Z,101237.66
2023-07-18T05:29:33.047Z,101243.50
2023-07-18T05:32:02.318Z,101242.94
2023-07-18T05:34:30.638Z,101249.72
2023-07-18T05:36:58.441Z,101256.28
2023-07-18T05:39:26.145Z,101248.09
2023-07-18T05:41:53.864Z,101238.38
2023-07-18T05:44:21.561Z,101243.25
2023-07-18T05:46:49.304Z,101253.22
2023-07-18T05:49:18.402Z,101244.25
2023-07-18T05:51:46.287Z,101249.72
2023-07-18T05:54:13.970Z,101251.06
2023-07-18T05:56:42.850Z,101245.81
2023-07-18T05:59:10.573Z,101249.19
2023-07-18T06:01:38.350Z,101249.41
2023-07-18T06:04:06.171Z,101255.09
2023-07-18T06:06:35.793Z,101256.41
2023-07-18T06:09:03.796Z,101249.94
2023-07-18T06:11:31.645Z,101255.13
2023-07-18T06:14:00.983Z,101258.78
2023-07-18T06:16:29.475Z,101257.34
2023-07-18T06:18:57.343Z,101263.84
2023-07-18T06:21:28.449Z,101254.53
2023-07-18T06:24:08.431Z,101258.38
2023-07-18T06:26:49.839Z,101261.25
2023-07-18T06:29:18.235Z,101258.28
2023-07-18T06:31:46.029Z,101263.97
2023-07-18T06:34:13.776Z,101257.50
2023-07-18T06:36:41.574Z,101254.69
2023-07-18T06:39:12.773Z,101259.44
2023-07-18T06:41:40.470Z,101266.09
2023-07-18T06:44:09.191Z,101262.84
2023-07-18T06:46:37.382Z,101258.88
2023-07-18T06:49:05.340Z,101254.91
2023-07-18T06:51:33.327Z,101255.25
2023-07-18T06:54:01.038Z,101253.09
2023-07-18T06:56:30.116Z,101256.88
2023-07-18T06:58:57.796Z,101259.13
2023-07-18T07:01:28.182Z,101261.34
2023-07-18T07:03:57.365Z,101261.69
2023-07-18T07:06:25.303Z,101254.03
2023-07-18T07:08:53.360Z,101260.44
2023-07-18T07:11:21.529Z,101256.44
2023-07-18T07:13:50.822Z,101237.50
2023-07-18T07:16:18.600Z,101247.41
2023-07-18T07:18:50.367Z,101253.22
2023-07-18T07:21:18.324Z,101246.13
2023-07-18T07:23:46.238Z,101233.91
2023-07-18T07:26:13.975Z,101244.75
2023-07-18T07:28:44.872Z,101234.63
2023-07-18T07:31:16.001Z,101244.09
2023-07-18T07:33:43.896Z,101230.34
2023-07-18T07:36:11.645Z,101224.41
2023-07-18T07:38:39.329Z,101214.75
2023-07-18T07:41:07.328Z,101232.97
2023-07-18T07:43:35.250Z,101217.72
2023-07-18T07:46:03.505Z,101217.91
2023-07-18T07:48:32.662Z,101222.28
2023-07-18T07:51:01.043Z,101211.06
2023-07-18T07:53:28.889Z,101212.69
2023-07-18T07:55:56.904Z,101205.28
2023-07-18T07:58:24.644Z,101197.69
2023-07-18T08:00:52.712Z,101195.13
2023-07-18T08:03:20.479Z,101198.81
2023-07-18T08:05:49.763Z,101199.00
2023-07-18T08:08:18.934Z,101188.00
2023-07-18T08:10:46.716Z,101188.78
2023-07-18T08:13:18.093Z,101184.47
2023-07-18T08:15:46.112Z,101192.13
2023-07-18T08:18:14.309Z,101190.09
2023-07-18T08:20:42.092Z,101188.56
2023-07-18T08:23:12.227Z,101185.47
2023-07-18T08:25:40.019Z,101186.81
2023-07-18T08:28:07.711Z,101188.75
2023-07-18T08:30:35.419Z,101186.13
2023-07-18T08:33:03.567Z,101191.75
2023-07-18T08:35:34.372Z,101184.69
2023-07-18T08:38:04.737Z,101184.81
2023-07-18T08:40:34.442Z,101188.44
2023-07-18T08:43:02.189Z,101175.09
2023-07-18T08:45:40.512Z,101181.88
2023-07-18T08:48:08.532Z,101190.97
2023-07-18T08:50:37.968Z,101189.00
2023-07-18T08:53:06.477Z,101182.31
2023-07-18T08:55:39.126Z,101173.81
2023-07-18T08:58:07.488Z,101177.16
2023-07-18T09:00:35.257Z,101173.94
2023-07-18T09:03:03.035Z,101171.75
2023-07-18T09:05:33.832Z,101164.03
2023-07-18T09:08:03.113Z,101156.88
2023-07-18T09:10:31.231Z,101161.25
2023-07-18T09:13:06.883Z,101155.56
2023-07-18T09:15:35.453Z,101154.56
2023-07-18T09:18:04.857Z,101150.25
2023-07-18T09:20:33.464Z,101125.03
2023-07-18T09:23:04.437Z,101136.19
2023-07-18T09:25:32.695Z,101124.09
2023-07-18T09:28:01.929Z,101134.63
2023-07-18T09:30:31.305Z,101125.31
2023-07-18T09:32:59.208Z,101123.97
2023-07-18T09:35:29.032Z,101122.66
2023-07-18T09:37:57.471Z,101119.69
2023-07-18T09:40:25.249Z,101126.19
2023-07-18T09:42:53.030Z,101124.16
2023-07-18T09:45:22.989Z,101132.44
2023-07-18T09:47:51.041Z,101129.56
2023-07-18T09:50:18.817Z,101139.34
2023-07-18T09:52:50.536Z,101136.88
2023-07-18T09:55:23.192Z,101136.47
2023-07-18T09:57:53.028Z,101139.50
2023-07-18T10:00:22.179Z,101136.69
2023-07-18T10:02:50.070Z,101132.91
2023-07-18T10:05:18.006Z,101135.78
2023-07-18T10:07:46.731Z,101139.13
2023-07-18T10:10:14.680Z,101126.97
2023-07-18T10:13:01.466Z,101119.31
2023-07-18T10:15:31.652Z,101118.84
2023-07-18T10:18:18.030Z,101119.00
2023-07-18T10:20:58.862Z,101117.84
2023-07-18T10:23:41.893Z,101116.78
2023-07-18T10:26:10.371Z,101120.06
2023-07-18T10:28:46.388Z,101122.25
2023-07-18T10:31:34.817Z,101118.44
2023-07-18T10:34:10.467Z,101119.06
2023-07-18T10:36:38.730Z,101115.97
2023-07-18T10:39:12.456Z,101119.50
2023-07-18T10:41:44.068Z,101114.44
2023-07-18T10:44:15.465Z,101113.59
2023-07-18T10:46:45.209Z,101105.31
2023-07-18T10:49:13.062Z,101104.13
2023-07-18T10:51:40.790Z,101096.66
2023-07-18T10:54:08.587Z,101086.00
2023-07-18T10:56:36.320Z,101077.66
2023-07-18T10:59:04.346Z,101083.75
2023-07-18T11:01:32.195Z,101075.00
2023-07-18T11:04:07.311Z,101071.84
2023-07-18T11:06:35.341Z,101071.41
2023-07-18T11:09:05.516Z,101068.22
2023-07-18T11:11:33.524Z,101069.59
2023-07-18T11:14:01.387Z,101058.34
2023-07-18T11:16:29.264Z,101056.81
2023-07-18T11:18:57.097Z,101050.94
2023-07-18T11:21:26.300Z,101055.94
2023-07-18T11:23:55.378Z,101057.16
2023-07-18T11:26:23.114Z,101039.72
2023-07-18T11:28:52.140Z,101042.56
2023-07-18T11:33:56.633Z,101043.75
2023-07-18T11:36:29.284Z,101034.53
2023-07-18T11:38:59.198Z,101028.88
2023-07-18T11:41:34.410Z,101017.84
2023-07-18T11:44:03.504Z,101036.03
2023-07-18T11:46:38.059Z,101015.69
2023-07-18T11:49:05.972Z,101005.59
2023-07-18T11:51:35.522Z,101003.13
2023-07-18T11:54:04.452Z,101003.59
2023-07-18T11:56:32.401Z,101012.56
2023-07-18T11:59:00.192Z,101014.75
2023-07-18T12:01:28.012Z,101014.06
2023-07-18T12:03:56.323Z,101015.69
2023-07-18T12:06:24.504Z,101010.53
2023-07-18T12:08:54.008Z,101016.16
2023-07-18T12:11:22.443Z,101002.22
2023-07-18T12:13:50.189Z,100993.91
2023-07-18T12:16:17.901Z,100991.59
2023-07-18T12:18:45.654Z,100998.50
2023-07-18T12:21:14.802Z,100997.19
2023-07-18T12:23:43.526Z,101005.75
2023-07-18T12:26:12.841Z,100993.00
2023-07-18T12:28:40.550Z,101003.84
2023-07-18T12:31:10.161Z,100997.53
2023-07-18T12:33:39.504Z,101010.38
2023-07-18T12:36:07.564Z,101016.66
2023-07-18T12:38:35.347Z,101019.63
2023-07-18T12:41:03.185Z,101013.63
2023-07-18T12:43:32.411Z,101005.19
2023-07-18T12:46:00.135Z,101006.34
2023-07-18T12:48:28.008Z,101001.97
2023-07-18T12:50:55.844Z,100993.53
2023-07-18T12:53:23.587Z,100979.84
2023-07-18T12:55:51.308Z,100990.53
2023-07-18T12:58:19.086Z,100987.44
2023-07-18T13:00:48.423Z,100992.34
2023-07-18T13:03:16.192Z,100989.69
2023-07-18T13:05:44.350Z,100980.97
2023-07-18T13:08:12.138Z,100973.63
2023-07-18T13:10:39.853Z,100971.97
2023-07-18T13:13:08.391Z,100970.66
2023-07-18T13:15:36.095Z,100981.66
2023-07-18T13:18:05.288Z,100978.97
2023-07-18T13:20:33.091Z,100975.72
2023-07-18T13:23:00.889Z,100972.72
2023-07-18T13:25:28.672Z,100966.09
2023-07-18T13:27:56.470Z,100963.06
2023-07-18T13:30:24.963Z,100962.09
2023-07-18T13:32:52.776Z,100959.06
2023-07-18T13:35:21.889Z,100945.41
2023-07-18T13:37:49.624Z,100938.72
2023-07-18T13:40:17.452Z,100926.22
2023-07-18T13:42:45.233Z,100920.91
2023-07-18T13:45:13.065Z,100908.59
2023-07-18T13:47:40.859Z,100914.75
2023-07-18T13:52:42.048Z,100902.69
2023-07-18T13:55:10.502Z,100895.09
2023-07-18T13:57:38.236Z,100884.44
2023-07-18T14:00:07.201Z,100891.75
2023-07-18T14:02:35.083Z,100884.94
2023-07-18T14:05:03.113Z,100875.91
2023-07-18T14:07:30.832Z,100869.91
2023-07-18T14:09:59.897Z,100859.19
2023-07-18T14:12:27.649Z,100865.06
2023-07-18T14:14:55.466Z,100854.63
2023-07-18T14:17:23.214Z,100849.44
2023-07-18T14:19:50.958Z,100839.31
2023-07-18T14:22:19.752Z,100838.25
2023-07-18T14:24:48.546Z,100843.47
2023-07-18T14:27:17.711Z,100839.09
2023-07-18T14:29:45.432Z,100827.81
2023-07-18T14:32:13.455Z,100836.88
2023-07-18T14:34:41.371Z,100833.47
2023-07-18T14:37:09.063Z,100832.19
2023-07-18T14:39:39.296Z,100828.56
2023-07-18T14:42:07.603Z,100828.00
2023-07-18T14:44:37.958Z,100820.75
2023-07-18T14:47:06.011Z,100831.63
2023-07-18T14:49:33.721Z,100820.03
2023-07-18T14:52:01.450Z,100830.66
2023-07-18T14:54:29.139Z,100819.22
2023-07-18T14:56:57.118Z,100812.00
2023-07-18T14:59:24.935Z,100813.19
2023-07-18T15:01:54.043Z,100819.94
2023-07-18T15:04:21.941Z,100814.59
2023-07-18T15:06:50.991Z,100818.28
2023-07-18T15:09:21.735Z,100817.63
2023-07-18T15:11:49.605Z,100819.28
2023-07-18T15:14:17.796Z,100817.03
2023-07-18T15:16:45.774Z,100811.03
2023-07-18T15:19:14.883Z,100820.38
2023-07-18T15:21:42.622Z,100802.72
2023-07-18T15:24:10.394Z,100806.84
2023-07-18T15:26:38.917Z,100801.09
2023-07-18T15:29:06.656Z,100801.38
2023-07-18T15:31:34.492Z,100791.25
2023-07-18T15:34:02.244Z,100793.50
2023-07-18T15:36:31.277Z,100800.78
2023-07-18T15:38:58.968Z,100787.78
2023-07-18T15:41:26.721Z,100788.88
2023-07-18T15:43:55.142Z,100785.91
2023-07-18T15:46:23.115Z,100795.25
2023-07-18T15:48:51.105Z,100790.59
2023-07-18T15:51:18.813Z,100791.63
2023-07-18T15:53:47.994Z,100786.63
2023-07-18T15:56:17.861Z,100788.44
2023-07-18T15:58:45.822Z,100779.09
2023-07-18T16:01:13.654Z,100770.59
2023-07-18T16:03:41.459Z,100770.28
2023-07-18T16:06:09.272Z,100759.28
2023-07-18T16:08:36.997Z,100762.28
2023-07-18T16:11:06.143Z,100758.13
2023-07-18T16:13:33.868Z,100759.28
2023-07-18T16:16:01.578Z,100760.28
2023-07-18T16:18:29.297Z,100751.47
2023-07-18T16:20:56.969Z,100742.81
2023-07-18T16:23:24.722Z,100737.97
2023-07-18T16:25:52.544Z,100745.66
2023-07-18T16:28:21.712Z,100754.31
2023-07-18T16:30:49.483Z,100740.28
2023-07-18T16:33:17.325Z,100735.63
2023-07-18T16:35:45.572Z,100740.59
2023-07-18T16:38:13.330Z,100738.28
2023-07-18T16:40:41.153Z,100739.63
2023-07-18T16:43:08.953Z,100717.16
2023-07-18T16:45:39.766Z,100732.13
2023-07-18T16:48:07.664Z,100722.66
2023-07-18T16:50:36.943Z,100722.34
2023-07-18T16:53:05.298Z,100716.69
2023-07-18T16:55:33.021Z,100714.69
2023-07-18T16:58:00.740Z,100717.16
2023-07-18T17:00:28.985Z,100709.50
2023-07-18T17:02:58.164Z,100704.19
2023-07-18T17:05:26.056Z,100696.19
2023-07-18T17:07:53.779Z,100694.34
2023-07-18T17:10:21.648Z,100690.50
2023-07-18T17:12:49.366Z,100695.00
2023-07-18T17:15:17.404Z,100701.00
2023-07-18T17:17:45.174Z,100695.00
2023-07-18T17:20:14.892Z,100695.16
2023-07-18T17:22:42.781Z,100693.97
2023-07-18T17:25:11.007Z,100690.50
2023-07-18T17:27:38.864Z,100688.00
2023-07-18T17:30:08.620Z,100684.00
2023-07-18T17:32:36.368Z,100680.09
2023-07-18T17:35:04.388Z,100675.25
2023-07-18T17:37:33.555Z,100683.91
2023-07-18T17:40:02.070Z,100685.50
2023-07-18T17:42:30.294Z,100673.47
2023-07-18T17:44:58.116Z,100664.84
2023-07-18T17:47:26.014Z,100663.31
2023-07-18T17:49:53.824Z,100662.56
2023-07-18T17:52:21.566Z,100661.38
2023-07-18T17:54:50.675Z,100667.47
2023-07-18T17:57:18.403Z,100665.94
2023-07-18T17:59:46.194Z,100656.13
2023-07-18T18:02:14.147Z,100654.41
2023-07-18T18:04:41.916Z,100664.03
2023-07-18T18:07:11.112Z,100666.47
2023-07-18T18:09:41.274Z,100668.38
2023-07-18T18:12:10.568Z,100660.38
2023-07-18T18:14:39.127Z,100656.97
2023-07-18T18:17:07.549Z,100661.38
2023-07-18T18:19:35.348Z,100657.81
2023-07-18T18:22:03.219Z,100655.78
2023-07-18T18:24:30.965Z,100657.25
2023-07-18T18:26:58.703Z,100652.69
2023-07-18T18:29:29.586Z,100653.66
2023-07-18T18:31:57.340Z,100654.94
2023-07-18T18:34:25.071Z,100653.59
2023-07-18T18:36:52.785Z,100655.13
2023-07-18T18:39:21.857Z,100660.06
2023-07-18T18:41:49.634Z,100652.06
2023-07-18T18:44:17.347Z,100650.44
2023-07-18T18:46:46.633Z,100654.16
2023-07-18T18:49:26.060Z,100657.41
2023-07-18T18:51:55.303Z,100652.00
2023-07-18T18:54:23.480Z,100650.91
2023-07-18T18:56:53.226Z,100642.59
2023-07-18T18:59:21.101Z,100657.72
2023-07-18T19:01:51.352Z,100658.06
2023-07-18T19:04:19.317Z,100657.84
2023-07-18T19:06:47.080Z,100658.00
2023-07-18T19:09:14.879Z,100653.16
2023-07-18T19:11:42.587Z,100652.59
2023-07-18T19:14:10.344Z,100644.84
2023-07-18T19:16:40.091Z,100657.94
2023-07-18T19:19:11.667Z,100654.84
2023-07-18T19:21:39.406Z,100651.69
2023-07-18T19:24:09.171Z,100659.59
2023-07-18T19:26:36.961Z,100662.09
2023-07-18T19:29:04.738Z,100660.38
2023-07-18T19:31:32.565Z,100662.06
2023-07-18T19:34:00.337Z,100655.22
2023-07-18T19:36:29.489Z,100664.94
2023-07-18T19:38:57.206Z,100663.50
2023-07-18T19:41:25.271Z,100667.50
2023-07-18T19:43:53.042Z,100668.28
2023-07-18T19:46:20.812Z,100665.00
2023-07-18T19:48:48.579Z,100666.81
2023-07-18T19:51:16.350Z,100674.53
2023-07-18T19:53:45.428Z,100678.84
2023-07-18T19:56:13.739Z,100680.69
2023-07-18T19:58:41.616Z,100674.38
2023-07-18T20:01:09.514Z,100672.31
2023-07-18T20:03:52.286Z,100682.75
2023-07-18T20:06:24.846Z,100685.06
2023-07-18T20:08:53.960Z,100684.22
2023-07-18T20:11:22.118Z,100678.38
2023-07-18T20:13:50.083Z,100684.84
2023-07-18T20:16:19.059Z,100686.31
2023-07-18T20:18:50.322Z,100683.91
2023-07-18T20:21:19.798Z,100677.47
2023-07-18T20:23:47.845Z,100680.25
2023-07-18T20:26:16.952Z,100666.25
2023-07-18T20:28:44.692Z,100678.91
2023-07-18T20:31:12.627Z,100682.16
2023-07-18T20:33:43.470Z,100678.69
2023-07-18T20:36:11.460Z,100685.88
2023-07-18T20:38:39.398Z,100680.13
2023-07-18T20:41:09.788Z,100679.53
2023-07-18T20:43:41.654Z,100686.50
2023-07-18T20:46:12.139Z,100678.44
2023-07-18T20:48:39.973Z,100678.44
2023-07-18T20:51:08.155Z,100674.75
2023-07-18T20:53:35.900Z,100671.06
2023-07-18T20:56:03.667Z,100674.50
2023-07-18T20:58:31.779Z,100679.06
2023-07-18T21:01:01.657Z,100678.00
2023-07-18T21:03:29.796Z,100678.72
2023-07-18T21:05:57.650Z,100672.47
2023-07-18T21:08:25.410Z,100663.75
2023-07-18T21:10:53.136Z,100681.09
2023-07-18T21:13:20.829Z,100683.00
2023-07-18T21:15:48.574Z,100679.06
2023-07-18T21:18:17.684Z,100681.41
2023-07-18T21:20:45.447Z,100676.72
2023-07-18T21:23:13.281Z,100676.34
2023-07-18T21:25:41.236Z,100675.03
2023-07-18T21:28:09.256Z,100679.56
2023-07-18T21:30:36.976Z,100669.50
2023-07-18T21:33:04.857Z,100666.38
2023-07-18T21:35:33.987Z,100672.09
2023-07-18T21:38:01.866Z,100667.50
2023-07-18T21:40:29.753Z,100675.63
2023-07-18T21:42:57.559Z,100659.50
2023-07-18T21:45:25.397Z,100666.06
2023-07-18T21:47:53.402Z,100668.19
2023-07-18T21:50:21.394Z,100664.59
2023-07-18T21:52:50.480Z,100657.44
2023-07-18T21:55:18.365Z,100664.81
2023-07-18T21:57:46.088Z,100651.41
2023-07-18T22:00:15.623Z,100645.88
2023-07-18T22:02:43.474Z,100651.13
2023-07-18T22:05:11.290Z,100649.13
2023-07-18T22:07:39.072Z,100645.19
2023-07-18T22:10:09.969Z,100644.03
2023-07-18T22:12:38.053Z,100637.25
2023-07-18T22:15:06.842Z,100646.94
2023-07-18T22:17:34.695Z,100645.78
2023-07-18T22:20:02.702Z,100636.94
2023-07-18T22:22:30.477Z,100638.59
2023-07-18T22:24:58.606Z,100644.47
2023-07-18T22:27:27.753Z,100637.91
2023-07-18T22:29:55.511Z,100632.47
2023-07-18T22:32:23.260Z,100630.78
2023-07-18T22:34:51.027Z,100632.22
2023-07-18T22:37:18.730Z,100632.22
2023-07-18T22:39:48.929Z,100631.06
2023-07-18T22:42:17.657Z,100636.81
2023-07-18T22:44:47.818Z,100633.25
2023-07-18T22:47:16.523Z,100626.09
2023-07-18T22:49:44.543Z,100628.06
2023-07-18T22:52:18.642Z,100626.53
2023-07-18T22:54:47.251Z,100629.47
2023-07-18T22:57:15.259Z,100626.09
2023-07-18T22:59:43.053Z,100631.56
2023-07-18T23:02:12.191Z,100631.91
2023-07-18T23:04:40.147Z,100631.69
2023-07-18T23:07:08.180Z,100623.41
2023-07-18T23:09:35.994Z,100629.75
2023-07-18T23:12:04.460Z,100620.91
2023-07-18T23:14:32.454Z,100634.13
2023-07-18T23:17:00.281Z,100623.25
2023-07-18T23:19:29.534Z,100623.97
2023-07-18T23:21:57.239Z,100608.22
2023-07-18T23:24:24.932Z,100619.84
2023-07-18T23:26:52.653Z,100616.63
2023-07-18T23:29:20.403Z,100607.00
2023-07-18T23:31:48.109Z,100614.19
2023-07-18T23:34:15.830Z,100614.09
2023-07-18T23:36:44.996Z,100608.16
2023-07-18T23:43:00.624Z,100593.97
2023-07-18T23:45:29.163Z,100595.25
2023-07-18T23:47:56.940Z,100589.25
2023-07-18T23:50:24.848Z,100581.50
2023-07-18T23:52:57.654Z,100559.81
2023-07-18T23:55:25.539Z,100551.53
2023-07-18T23:57:53.362Z,100590.63
